Time;durP1;ratioP1;P1;durP2;ratioP2;P2;SDS_P1;SDS_P2;PMS_P1;PMS_P2;Temp;Humidity;BMP_temperature;BMP_pressure;BME280_temperature;BME280_humidity;BME280_pressure;Samples;Min_cycle;Max_cycle;Signal;HPM_P1;HPM_P2
2022/09/07 00:01:22;;;;;;;13.07;9.02;;;18.80;99.90;;;;;;5039199;28;20048;-75
2022/09/07 00:03:48;;;;;;;11.55;9.30;;;18.80;99.90;;;;;;5052778;28;20057;-75
2022/09/07 00:06:13;;;;;;;12.60;9.38;;;18.70;99.90;;;;;;5038912;28;20045;-76
2022/09/07 00:08:42;;;;;;;11.82;8.10;;;18.70;99.90;;;;;;5051989;28;20128;-76
2022/09/07 00:11:15;;;;;;;10.65;8.00;;;18.70;99.90;;;;;;5047765;28;20059;-76
2022/09/07 00:13:43;;;;;;;10.43;8.35;;;18.70;99.90;;;;;;5056456;28;20049;-75
2022/09/07 00:16:18;;;;;;;11.77;7.85;;;18.70;99.90;;;;;;5038847;28;20040;-75
2022/09/07 00:18:44;;;;;;;10.63;8.93;;;18.70;99.90;;;;;;5039625;28;20049;-75
2022/09/07 00:21:11;;;;;;;11.90;9.15;;;18.60;99.90;;;;;;5050836;28;20048;-75
2022/09/07 00:23:38;;;;;;;11.05;8.73;;;18.60;99.90;;;;;;5037940;28;20116;-75
2022/09/07 00:26:08;;;;;;;9.68;8.40;;;18.60;99.90;;;;;;5024917;28;20048;-75
2022/09/07 00:28:34;;;;;;;13.05;9.07;;;18.70;99.90;;;;;;5038342;28;20106;-75
2022/09/07 00:31:00;;;;;;;11.85;7.63;;;18.60;99.90;;;;;;5040481;28;20105;-75
2022/09/07 00:33:27;;;;;;;11.63;8.70;;;18.60;99.90;;;;;;5047498;28;20037;-75
2022/09/07 00:35:53;;;;;;;9.23;7.53;;;18.60;99.90;;;;;;5048512;28;20503;-75
2022/09/07 00:38:18;;;;;;;10.88;8.07;;;18.60;99.90;;;;;;5057850;28;20127;-75
2022/09/07 00:40:44;;;;;;;10.25;7.60;;;18.80;99.90;;;;;;5049752;28;20037;-75
2022/09/07 00:43:41;;;;;;;11.23;7.78;;;18.80;99.90;;;;;;5038172;28;20094;-75
2022/09/07 00:46:16;;;;;;;9.65;6.78;;;18.80;99.90;;;;;;5038484;28;20534;-75
2022/09/07 00:48:56;;;;;;;9.65;7.43;;;18.70;99.90;;;;;;5037786;28;20039;-75
2022/09/07 00:51:37;;;;;;;11.05;6.00;;;18.80;99.90;;;;;;5038316;28;20071;-75
2022/09/07 00:54:16;;;;;;;10.13;7.03;;;18.80;99.90;;;;;;5037733;28;20495;-75
2022/09/07 00:56:43;;;;;;;10.20;7.10;;;18.80;99.90;;;;;;5038126;28;20542;-75
2022/09/07 00:59:16;;;;;;;9.65;7.85;;;18.80;99.90;;;;;;5043838;28;20041;-75
2022/09/07 01:01:43;;;;;;;10.18;9.02;;;18.90;99.90;;;;;;5041013;28;20055;-75
2022/09/07 01:04:08;;;;;;;12.35;9.05;;;18.80;99.90;;;;;;5041932;28;20041;-75
2022/09/07 01:06:37;;;;;;;14.02;10.55;;;18.70;99.90;;;;;;5037192;28;20128;-75
2022/09/07 01:09:11;;;;;;;12.25;10.88;;;18.50;99.90;;;;;;5033253;28;20049;-75
2022/09/07 01:11:37;;;;;;;13.75;10.10;;;18.40;99.90;;;;;;5044554;28;20521;-75
2022/09/07 01:14:06;;;;;;;11.95;10.40;;;18.50;99.90;;;;;;5057150;28;20048;-75
2022/09/07 01:16:57;;;;;;;17.17;12.13;;;18.30;99.90;;;;;;5056743;28;20044;-76
2022/09/07 01:19:38;;;;;;;14.38;12.77;;;18.20;99.90;;;;;;5020067;28;20140;-76
2022/09/07 01:22:22;;;;;;;14.05;12.55;;;18.10;99.90;;;;;;5034969;28;20094;-77
2022/09/07 01:25:20;;;;;;;16.02;14.32;;;18.00;99.90;;;;;;5031042;28;20037;-77
2022/09/07 01:28:19;;;;;;;15.02;11.77;;;18.00;99.90;;;;;;5040050;28;20480;-78
2022/09/07 01:30:55;;;;;;;16.05;14.40;;;18.00;99.90;;;;;;5037513;28;20503;-78
2022/09/07 01:33:32;;;;;;;19.60;17.58;;;18.00;99.90;;;;;;5037120;28;20541;-78
2022/09/07 01:36:27;;;;;;;15.40;13.75;;;18.10;99.90;;;;;;5031445;28;20040;-78
2022/09/07 01:38:57;;;;;;;15.35;13.68;;;18.10;99.90;;;;;;5043284;28;20048;-78
2022/09/07 01:41:38;;;;;;;17.17;15.27;;;18.00;99.90;;;;;;5043413;28;20051;-78
2022/09/07 01:44:19;;;;;;;18.10;16.25;;;18.00;99.90;;;;;;5024571;28;20681;-78
2022/09/07 01:47:03;;;;;;;14.98;13.48;;;18.00;99.90;;;;;;5036598;28;20036;-78
2022/09/07 01:49:43;;;;;;;17.15;13.63;;;17.90;99.90;;;;;;5046648;28;20036;-77
2022/09/07 01:52:37;;;;;;;14.65;13.15;;;17.90;99.90;;;;;;5056209;28;20045;-78
2022/09/07 01:55:12;;;;;;;17.55;15.70;;;17.90;99.90;;;;;;5025728;28;20381;-78
2022/09/07 01:57:45;;;;;;;16.35;12.63;;;17.80;99.90;;;;;;5033605;28;20119;-77
2022/09/07 02:00:17;;;;;;;14.35;12.20;;;17.80;99.90;;;;;;5036360;28;20072;-78
2022/09/07 02:03:03;;;;;;;15.00;13.40;;;17.80;99.90;;;;;;5049227;28;20040;-77
2022/09/07 02:05:58;;;;;;;13.63;11.82;;;17.80;99.90;;;;;;5032629;28;20033;-77
2022/09/07 02:08:36;;;;;;;14.57;11.52;;;17.80;99.90;;;;;;5003004;28;20049;-77
2022/09/07 02:11:32;;;;;;;14.85;13.25;;;17.80;99.90;;;;;;5030233;28;20064;-77
2022/09/07 02:14:37;;;;;;;13.50;9.52;;;17.70;99.90;;;;;;5017457;28;20116;-77
2022/09/07 02:17:15;;;;;;;10.75;8.85;;;17.70;99.90;;;;;;5036224;28;20044;-77
2022/09/07 02:20:05;;;;;;;10.73;8.43;;;17.80;99.90;;;;;;5056196;28;20551;-77
2022/09/07 02:22:36;;;;;;;11.70;10.50;;;17.90;99.90;;;;;;5037843;28;20064;-77
2022/09/07 02:25:03;;;;;;;12.93;11.43;;;17.90;99.90;;;;;;5035327;28;20041;-77
2022/09/07 02:27:39;;;;;;;13.38;10.75;;;17.90;99.90;;;;;;5037871;28;20050;-77
2022/09/07 02:30:05;;;;;;;11.50;9.27;;;17.90;99.90;;;;;;5046575;28;20158;-77
2022/09/07 02:32:31;;;;;;;13.48;12.05;;;17.90;99.90;;;;;;5035621;28;20053;-77
2022/09/07 02:34:57;;;;;;;9.40;7.88;;;18.00;99.90;;;;;;5035334;28;20053;-76
2022/09/07 02:37:26;;;;;;;12.13;9.23;;;18.00;99.90;;;;;;5048968;28;20040;-77
2022/09/07 02:39:52;;;;;;;11.95;10.65;;;18.00;99.90;;;;;;5035434;28;20039;-77
2022/09/07 02:42:17;;;;;;;17.65;14.00;;;18.10;99.90;;;;;;5035961;28;20131;-77
2022/09/07 02:44:45;;;;;;;14.52;13.00;;;18.00;99.90;;;;;;5035541;28;20045;-77
2022/09/07 02:47:48;;;;;;;9.65;6.93;;;17.90;99.90;;;;;;5035598;28;20037;-77
2022/09/07 02:50:27;;;;;;;12.98;11.50;;;17.90;99.90;;;;;;5029484;28;20089;-77
2022/09/07 02:53:15;;;;;;;12.85;11.55;;;17.90;99.90;;;;;;5035037;28;20122;-77
2022/09/07 02:56:05;;;;;;;13.13;11.55;;;17.90;99.90;;;;;;5034924;28;20505;-77
2022/09/07 02:58:50;;;;;;;11.20;8.95;;;17.90;99.90;;;;;;5035099;28;20037;-77
2022/09/07 03:01:36;;;;;;;10.30;8.50;;;17.90;99.90;;;;;;5052106;28;20037;-76
2022/09/07 03:04:14;;;;;;;16.55;14.85;;;17.90;99.90;;;;;;5022911;28;20072;-76
2022/09/07 03:06:48;;;;;;;21.23;18.92;;;17.80;99.90;;;;;;5035665;28;20047;-76
2022/09/07 03:09:21;;;;;;;13.63;12.23;;;17.60;99.90;;;;;;5034582;28;20041;-76
2022/09/07 03:11:48;;;;;;;15.05;13.50;;;17.60;99.90;;;;;;5034689;28;20122;-76
2022/09/07 03:14:19;;;;;;;19.73;17.77;;;17.60;99.90;;;;;;5035121;28;20057;-76
2022/09/07 03:16:48;;;;;;;19.25;17.35;;;17.60;99.90;;;;;;5035026;28;20595;-77
2022/09/07 03:19:14;;;;;;;13.27;11.43;;;17.50;99.90;;;;;;5028835;28;20197;-76
2022/09/07 03:21:39;;;;;;;10.93;9.82;;;17.50;99.90;;;;;;5011819;28;20395;-76
2022/09/07 03:24:05;;;;;;;11.65;9.63;;;17.60;99.90;;;;;;4992738;28;20039;-76
2022/09/07 03:26:31;;;;;;;12.60;11.02;;;17.70;99.90;;;;;;5035404;28;20041;-76
2022/09/07 03:28:58;;;;;;;17.58;15.73;;;17.70;99.90;;;;;;5033845;28;20037;-76
2022/09/07 03:31:24;;;;;;;14.98;13.38;;;17.80;99.90;;;;;;5034363;28;20036;-76
2022/09/07 03:33:50;;;;;;;16.52;14.82;;;17.70;99.90;;;;;;5003736;28;20492;-76
2022/09/07 03:36:15;;;;;;;18.65;16.90;;;17.70;99.90;;;;;;5021449;28;20045;-76
2022/09/07 03:38:41;;;;;;;15.32;13.75;;;17.70;99.90;;;;;;5033746;28;20415;-76
2022/09/07 03:41:07;;;;;;;16.63;14.88;;;17.70;99.90;;;;;;5034631;28;20511;-76
2022/09/07 03:43:33;;;;;;;19.65;17.67;;;17.70;99.90;;;;;;5034601;28;20051;-77
2022/09/07 03:46:05;;;;;;;14.57;12.63;;;17.60;99.90;;;;;;5017764;28;20033;-76
2022/09/07 03:48:35;;;;;;;11.38;10.23;;;17.70;99.90;;;;;;5025243;28;20045;-77
2022/09/07 03:51:05;;;;;;;15.48;14.02;;;17.70;99.90;;;;;;5030770;28;20041;-76
2022/09/07 03:53:32;;;;;;;15.57;13.98;;;17.70;99.90;;;;;;5017572;28;20045;-76
2022/09/07 03:56:04;;;;;;;16.83;15.23;;;17.80;99.90;;;;;;5018307;28;20045;-77
2022/09/07 03:58:31;;;;;;;11.35;9.80;;;17.70;99.90;;;;;;5034239;28;20155;-77
2022/09/07 04:00:58;;;;;;;14.57;12.88;;;17.70;99.90;;;;;;5034591;28;20047;-77
2022/09/07 04:03:24;;;;;;;16.85;15.07;;;17.70;99.90;;;;;;5020530;28;20044;-76
2022/09/07 04:05:50;;;;;;;23.95;21.58;;;17.70;99.90;;;;;;5034810;28;20419;-76
2022/09/07 04:08:16;;;;;;;12.70;11.43;;;17.70;99.90;;;;;;5047495;28;20037;-77
2022/09/07 04:10:42;;;;;;;17.00;15.27;;;17.60;99.90;;;;;;5033758;28;20057;-76
2022/09/07 04:13:08;;;;;;;12.52;11.25;;;17.70;99.90;;;;;;5030781;28;20041;-76
2022/09/07 04:15:34;;;;;;;16.48;14.77;;;17.70;99.90;;;;;;5032467;28;20041;-76
2022/09/07 04:18:00;;;;;;;20.88;18.88;;;17.60;99.90;;;;;;5017672;28;20052;-76
2022/09/07 04:20:27;;;;;;;19.88;17.88;;;17.50;99.90;;;;;;5017531;28;20055;-76
2022/09/07 04:22:52;;;;;;;18.38;16.48;;;17.50;99.90;;;;;;5033994;28;20080;-76
2022/09/07 04:25:18;;;;;;;17.23;15.43;;;17.50;99.90;;;;;;5034032;28;20495;-76
2022/09/07 04:27:44;;;;;;;18.45;15.20;;;17.40;99.90;;;;;;5017633;28;20041;-76
2022/09/07 04:30:11;;;;;;;21.38;19.33;;;17.40;99.90;;;;;;5034298;28;20048;-76
2022/09/07 04:32:37;;;;;;;17.70;15.93;;;17.40;99.90;;;;;;5017746;28;20068;-76
2022/09/07 04:35:03;;;;;;;17.25;15.50;;;17.40;99.90;;;;;;5017960;28;20079;-76
2022/09/07 04:37:29;;;;;;;15.40;13.85;;;17.40;99.90;;;;;;5003558;28;20041;-76
2022/09/07 04:39:54;;;;;;;18.95;17.20;;;17.40;99.90;;;;;;5042545;28;20130;-76
2022/09/07 04:42:20;;;;;;;21.38;19.23;;;17.40;99.90;;;;;;5056894;28;20407;-76
2022/09/07 04:44:48;;;;;;;19.55;17.48;;;17.40;99.90;;;;;;5057922;28;20123;-77
2022/09/07 04:47:14;;;;;;;19.88;17.98;;;17.40;99.90;;;;;;5058290;28;20402;-76
2022/09/07 04:49:40;;;;;;;23.98;21.77;;;17.30;99.90;;;;;;5026445;28;20029;-76
2022/09/07 04:52:06;;;;;;;23.33;21.08;;;17.20;99.90;;;;;;5029685;28;20039;-76
2022/09/07 04:54:31;;;;;;;20.95;19.00;;;17.20;99.90;;;;;;5036948;28;20041;-76
2022/09/07 04:56:57;;;;;;;21.77;19.77;;;17.20;99.90;;;;;;5022242;28;20152;-76
2022/09/07 04:59:23;;;;;;;22.90;20.65;;;17.20;99.90;;;;;;5024190;28;20052;-77
2022/09/07 05:01:49;;;;;;;40.05;32.70;;;17.30;99.90;;;;;;5059785;28;20123;-76
2022/09/07 05:04:14;;;;;;;31.05;27.75;;;17.20;99.90;;;;;;5045861;28;20382;-76
2022/09/07 05:06:40;;;;;;;20.52;18.50;;;17.10;99.90;;;;;;5042164;28;20032;-76
2022/09/07 05:09:06;;;;;;;22.70;20.52;;;17.10;99.90;;;;;;5049003;28;20048;-76
2022/09/07 05:11:31;;;;;;;24.10;21.80;;;17.10;99.90;;;;;;5054559;28;20055;-76
2022/09/07 05:14:00;;;;;;;21.40;19.20;;;17.20;99.90;;;;;;5040241;28;20051;-77
2022/09/07 05:16:26;;;;;;;23.67;21.48;;;17.20;99.90;;;;;;5039219;28;20484;-76
2022/09/07 05:18:54;;;;;;;22.70;20.60;;;17.30;99.90;;;;;;5055824;28;20041;-76
2022/09/07 05:21:23;;;;;;;36.38;32.65;;;17.20;99.90;;;;;;5022732;28;20037;-76
2022/09/07 05:23:51;;;;;;;33.05;29.75;;;17.20;99.90;;;;;;5037606;28;20037;-76
2022/09/07 05:26:17;;;;;;;21.50;19.48;;;17.20;99.90;;;;;;5039248;28;20033;-76
2022/09/07 05:28:43;;;;;;;16.45;14.85;;;17.20;99.90;;;;;;5022709;28;20060;-76
2022/09/07 05:31:11;;;;;;;22.02;19.73;;;17.20;99.90;;;;;;5053314;28;20048;-77
2022/09/07 05:33:37;;;;;;;21.85;19.85;;;17.20;99.90;;;;;;5039860;28;20075;-78
2022/09/07 05:36:05;;;;;;;29.85;26.85;;;17.30;99.90;;;;;;5032554;28;20049;-73
2022/09/07 05:38:33;;;;;;;17.08;15.38;;;17.40;99.90;;;;;;5016450;28;20080;-75
2022/09/07 05:40:59;;;;;;;13.63;12.25;;;17.40;99.90;;;;;;5048599;28;20119;-73
2022/09/07 05:43:25;;;;;;;19.70;17.70;;;17.50;99.90;;;;;;5041580;28;20171;-74
2022/09/07 05:45:54;;;;;;;12.85;11.55;;;17.50;99.90;;;;;;5036600;28;20044;-74
2022/09/07 05:48:20;;;;;;;20.60;18.60;;;17.60;99.90;;;;;;5036842;28;20535;-73
2022/09/07 05:50:51;;;;;;;22.25;19.85;;;17.60;99.90;;;;;;5036464;28;20115;-75
2022/09/07 05:53:18;;;;;;;23.30;21.10;;;17.60;99.90;;;;;;5043222;28;20041;-74
2022/09/07 05:55:45;;;;;;;18.30;16.50;;;17.60;99.90;;;;;;5035533;28;20041;-75
2022/09/07 05:58:10;;;;;;;18.10;16.30;;;17.60;99.90;;;;;;5041333;28;20036;-75
2022/09/07 06:00:36;;;;;;;20.95;18.95;;;17.60;99.90;;;;;;5039804;28;20068;-75
2022/09/07 06:03:02;;;;;;;23.58;21.20;;;17.70;99.90;;;;;;5015422;28;20044;-76
2022/09/07 06:05:28;;;;;;;23.65;21.38;;;17.70;99.90;;;;;;5024606;28;20036;-76
2022/09/07 06:07:53;;;;;;;23.42;21.20;;;17.70;99.90;;;;;;5017541;28;20045;-74
2022/09/07 06:10:19;;;;;;;23.95;21.60;;;17.70;99.90;;;;;;5022572;28;20057;-78
2022/09/07 06:12:45;;;;;;;17.85;15.85;;;17.80;99.90;;;;;;5015876;28;20065;-73
2022/09/07 06:15:11;;;;;;;21.48;19.48;;;17.80;99.90;;;;;;4987696;28;20033;-74
2022/09/07 06:17:37;;;;;;;20.90;18.77;;;17.80;99.90;;;;;;5004427;28;20037;-74
2022/09/07 06:20:05;;;;;;;27.52;24.75;;;17.80;99.90;;;;;;5006095;28;20514;-74
2022/09/07 06:22:33;;;;;;;26.13;23.58;;;17.70;99.90;;;;;;5008950;28;20063;-73
2022/09/07 06:24:59;;;;;;;26.25;23.75;;;17.70;99.90;;;;;;5013282;28;20091;-73
2022/09/07 06:27:24;;;;;;;19.92;18.02;;;17.70;99.90;;;;;;5030259;28;20045;-73
2022/09/07 06:29:50;;;;;;;24.35;22.10;;;17.70;99.90;;;;;;4990740;28;20056;-74
2022/09/07 06:32:16;;;;;;;21.55;19.38;;;17.80;99.90;;;;;;5014072;28;20033;-74
2022/09/07 06:34:41;;;;;;;22.55;20.48;;;17.80;99.90;;;;;;5003015;28;20045;-78
2022/09/07 06:37:07;;;;;;;21.30;18.90;;;18.00;99.90;;;;;;4981816;28;20048;-75
2022/09/07 06:39:35;;;;;;;24.05;21.67;;;18.20;99.90;;;;;;4998807;28;20449;-75
2022/09/07 06:42:02;;;;;;;22.83;20.63;;;18.50;99.90;;;;;;4996742;28;20103;-75
2022/09/07 06:44:29;;;;;;;22.13;19.88;;;18.80;99.90;;;;;;4996493;28;20041;-75
2022/09/07 06:46:54;;;;;;;21.15;19.05;;;19.00;99.90;;;;;;5012973;28;20128;-76
2022/09/07 06:49:22;;;;;;;21.88;19.67;;;19.20;99.90;;;;;;5012612;28;20526;-77
2022/09/07 06:51:48;;;;;;;18.95;17.10;;;19.20;99.90;;;;;;5012165;28;20072;-76
2022/09/07 06:54:14;;;;;;;20.25;18.38;;;19.20;99.90;;;;;;5013987;28;20045;-77
2022/09/07 06:56:39;;;;;;;21.98;19.88;;;19.10;99.90;;;;;;4960694;28;20048;-74
2022/09/07 06:59:06;;;;;;;19.98;17.77;;;19.10;99.90;;;;;;4998700;28;20101;-79
2022/09/07 07:01:32;;;;;;;22.35;20.05;;;19.00;99.90;;;;;;5012483;28;20050;-79
2022/09/07 07:04:00;;;;;;;19.20;17.27;;;18.90;99.90;;;;;;4982716;28;20037;-79
2022/09/07 07:06:33;;;;;;;20.23;18.10;;;18.90;99.90;;;;;;5008508;28;20578;-79
2022/09/07 07:08:59;;;;;;;20.17;17.65;;;18.80;99.90;;;;;;4995192;28;20048;-78
2022/09/07 07:11:25;;;;;;;20.95;18.85;;;18.80;99.90;;;;;;5002886;28;20060;-78
2022/09/07 07:13:51;;;;;;;23.00;20.60;;;18.60;99.90;;;;;;5029052;28;20037;-79
2022/09/07 07:16:17;;;;;;;21.40;19.35;;;18.60;99.90;;;;;;5037671;28;20046;-79
2022/09/07 07:18:43;;;;;;;22.08;19.70;;;18.60;99.90;;;;;;5036861;28;20045;-78
2022/09/07 07:21:14;;;;;;;22.70;20.50;;;18.50;99.90;;;;;;5053618;28;20055;-78
2022/09/07 07:23:41;;;;;;;21.60;19.40;;;18.50;99.90;;;;;;5029930;28;20530;-79
2022/09/07 07:26:11;;;;;;;24.17;21.75;;;18.50;99.90;;;;;;5043217;28;20041;-78
2022/09/07 07:28:38;;;;;;;22.88;20.70;;;18.40;99.90;;;;;;5021566;28;20044;-79
2022/09/07 07:31:05;;;;;;;23.48;21.27;;;18.50;99.90;;;;;;5036294;28;20048;-78
2022/09/07 07:33:51;;;;;;;20.63;18.63;;;18.50;99.90;;;;;;5037839;28;20048;-80
2022/09/07 07:36:20;;;;;;;24.58;22.08;;;18.60;99.90;;;;;;5034444;28;20517;-78
2022/09/07 07:38:48;;;;;;;23.38;20.92;;;18.60;99.90;;;;;;5037009;28;20512;-79
2022/09/07 07:41:16;;;;;;;19.65;17.55;;;18.60;99.90;;;;;;5019175;28;20041;-79
2022/09/07 07:43:42;;;;;;;22.05;19.77;;;18.60;99.90;;;;;;5040389;28;20045;-78
2022/09/07 07:46:10;;;;;;;24.17;21.63;;;18.60;99.90;;;;;;5018193;28;20417;-79
2022/09/07 07:48:36;;;;;;;23.13;20.73;;;18.60;99.90;;;;;;5040225;28;20116;-78
2022/09/07 07:51:03;;;;;;;23.42;20.92;;;18.60;99.90;;;;;;5039875;28;20558;-78
2022/09/07 07:53:32;;;;;;;22.38;20.00;;;18.60;99.90;;;;;;5022391;28;20037;-78
2022/09/07 07:55:58;;;;;;;24.83;22.17;;;18.60;99.90;;;;;;5038616;28;20566;-79
2022/09/07 07:58:28;;;;;;;27.33;24.42;;;18.50;99.90;;;;;;5038079;28;20483;-79
2022/09/07 08:00:59;;;;;;;24.85;22.25;;;18.60;99.90;;;;;;5056661;28;20531;-80
2022/09/07 08:03:25;;;;;;;25.02;22.50;;;18.60;99.90;;;;;;5038183;28;20041;-78
2022/09/07 08:05:51;;;;;;;24.70;22.13;;;18.60;99.90;;;;;;5024830;28;20037;-77
2022/09/07 08:08:17;;;;;;;29.15;26.05;;;18.50;99.90;;;;;;5039297;28;20440;-77
2022/09/07 08:10:44;;;;;;;26.42;22.35;;;18.60;99.90;;;;;;5022324;28;20063;-77
2022/09/07 08:13:10;;;;;;;30.95;27.65;;;18.60;99.90;;;;;;5037307;28;20041;-76
2022/09/07 08:15:43;;;;;;;25.60;22.90;;;18.60;99.90;;;;;;5032996;28;20429;-76
2022/09/07 08:18:11;;;;;;;28.50;25.50;;;18.60;99.90;;;;;;5041435;28;20028;-76
2022/09/07 08:20:37;;;;;;;28.58;25.75;;;18.60;99.90;;;;;;5036451;28;20102;-77
2022/09/07 08:23:03;;;;;;;29.30;26.15;;;18.70;99.90;;;;;;5037563;28;20032;-76
2022/09/07 08:25:29;;;;;;;31.58;28.20;;;18.90;99.90;;;;;;5006968;28;20037;-77
2022/09/07 08:27:55;;;;;;;30.55;27.42;;;18.90;99.90;;;;;;5019524;28;20041;-78
2022/09/07 08:30:21;;;;;;;30.30;27.20;;;19.00;99.90;;;;;;5025912;28;20103;-77
2022/09/07 08:32:47;;;;;;;32.58;29.08;;;19.10;99.90;;;;;;5017752;28;20093;-78
2022/09/07 08:35:13;;;;;;;32.55;29.15;;;19.20;99.90;;;;;;5039815;28;20139;-79
2022/09/07 08:37:38;;;;;;;29.23;26.33;;;19.20;99.90;;;;;;5020490;28;20051;-78
2022/09/07 08:40:04;;;;;;;30.88;27.73;;;19.30;99.90;;;;;;5020846;28;20083;-79
2022/09/07 08:42:43;;;;;;;28.27;25.23;;;19.40;99.90;;;;;;5009430;28;20044;-80
2022/09/07 08:45:39;;;;;;;30.05;26.77;;;19.50;99.90;;;;;;5040686;28;20051;-82
2022/09/07 08:48:04;;;;;;;33.42;29.92;;;19.50;99.90;;;;;;5039119;28;20072;-80
2022/09/07 08:50:52;;;;;;;30.50;27.40;;;19.50;99.90;;;;;;5026502;28;20067;-76
2022/09/07 08:53:20;;;;;;;30.42;27.48;;;19.50;99.90;;;;;;5016526;28;20044;-77
2022/09/07 08:55:57;;;;;;;31.98;28.55;;;19.70;99.90;;;;;;5044418;28;20056;-76
2022/09/07 08:58:43;;;;;;;29.83;26.63;;;19.70;99.90;;;;;;5042644;28;20044;-77
2022/09/07 09:01:13;;;;;;;28.13;25.13;;;19.80;99.90;;;;;;5044782;28;20055;-76
2022/09/07 09:03:40;;;;;;;25.60;23.10;;;19.90;99.90;;;;;;5041103;28;20069;-76
2022/09/07 09:06:21;;;;;;;29.65;26.70;;;20.00;99.90;;;;;;5042869;28;20556;-77
2022/09/07 09:09:01;;;;;;;32.45;29.05;;;20.00;99.90;;;;;;5043996;28;20098;-77
2022/09/07 09:11:57;;;;;;;32.00;28.80;;;20.10;99.90;;;;;;5040193;28;20049;-76
2022/09/07 09:15:07;;;;;;;29.45;26.45;;;20.10;99.90;;;;;;5035613;28;20051;-77
2022/09/07 09:17:38;;;;;;;25.00;22.55;;;20.20;99.90;;;;;;4988471;28;20049;-77
2022/09/07 09:20:28;;;;;;;26.55;23.95;;;20.30;99.90;;;;;;5029827;28;20041;-77
2022/09/07 09:23:03;;;;;;;27.08;24.38;;;20.40;99.90;;;;;;5019623;28;20091;-78
2022/09/07 09:25:34;;;;;;;27.13;24.33;;;20.40;99.90;;;;;;5033387;28;20361;-76
2022/09/07 09:28:00;;;;;;;26.95;24.23;;;20.40;99.90;;;;;;5037759;28;20082;-76
2022/09/07 09:30:27;;;;;;;29.48;24.08;;;20.40;99.90;;;;;;5039060;28;20043;-77
2022/09/07 09:33:13;;;;;;;29.15;26.15;;;20.30;99.90;;;;;;5021988;28;20038;-76
2022/09/07 09:35:39;;;;;;;26.45;23.85;;;20.40;99.90;;;;;;5023028;28;20040;-76
2022/09/07 09:38:27;;;;;;;26.55;23.80;;;20.40;99.90;;;;;;5008446;28;20036;-76
2022/09/07 09:40:55;;;;;;;27.23;24.42;;;20.60;99.90;;;;;;5039503;28;20442;-76
2022/09/07 09:43:25;;;;;;;25.20;22.60;;;20.80;99.90;;;;;;5042102;28;20049;-76
2022/09/07 09:45:56;;;;;;;26.25;23.65;;;21.10;99.90;;;;;;5041450;28;20037;-76
2022/09/07 09:48:38;;;;;;;24.02;21.63;;;21.40;99.90;;;;;;5043244;28;20095;-76
2022/09/07 09:51:06;;;;;;;20.95;18.75;;;21.80;99.90;;;;;;5039384;28;20044;-76
2022/09/07 09:53:45;;;;;;;18.23;15.90;;;22.10;99.90;;;;;;5019075;28;20040;-76
2022/09/07 09:56:11;;;;;;;18.38;15.73;;;22.30;99.90;;;;;;5040618;28;20040;-77
2022/09/07 09:58:39;;;;;;;18.33;14.85;;;22.20;99.90;;;;;;5024939;28;20106;-76
2022/09/07 10:01:31;;;;;;;15.52;12.38;;;22.10;99.90;;;;;;5024279;28;20036;-76
2022/09/07 10:04:16;;;;;;;13.25;11.85;;;22.00;99.90;;;;;;5040228;28;20047;-75
2022/09/07 10:06:52;;;;;;;17.45;11.95;;;22.00;99.90;;;;;;5042688;28;20040;-76
2022/09/07 10:09:25;;;;;;;12.80;10.15;;;21.90;99.90;;;;;;5042313;28;20048;-75
2022/09/07 10:12:01;;;;;;;13.63;10.82;;;21.90;99.90;;;;;;5039319;28;20508;-75
2022/09/07 10:14:32;;;;;;;31.83;12.18;;;21.90;99.90;;;;;;5037020;28;20051;-77
2022/09/07 10:16:59;;;;;;;15.38;10.85;;;21.90;99.90;;;;;;5030525;28;20055;-77
2022/09/07 10:19:34;;;;;;;18.13;11.43;;;21.90;99.90;;;;;;5041807;28;20041;-76
2022/09/07 10:22:04;;;;;;;13.52;11.20;;;21.90;99.90;;;;;;5037511;28;20115;-77
2022/09/07 10:24:37;;;;;;;13.73;12.15;;;21.80;99.90;;;;;;5039641;28;20114;-78
2022/09/07 10:27:28;;;;;;;15.50;10.13;;;21.80;99.90;;;;;;5030648;28;20488;-78
2022/09/07 10:29:54;;;;;;;13.85;11.55;;;21.80;99.90;;;;;;5034350;28;20056;-76
2022/09/07 10:32:32;;;;;;;13.63;11.48;;;22.10;99.90;;;;;;5036024;28;20043;-76
2022/09/07 10:35:15;;;;;;;17.27;10.00;;;22.30;99.90;;;;;;5038556;28;20045;-76
2022/09/07 10:38:10;;;;;;;11.30;9.75;;;22.60;99.90;;;;;;5018964;28;20040;-76
2022/09/07 10:40:39;;;;;;;11.93;8.73;;;22.70;99.90;;;;;;5019898;28;20499;-76
2022/09/07 10:43:21;;;;;;;10.95;9.63;;;22.80;99.90;;;;;;5035604;28;20040;-77
2022/09/07 10:46:16;;;;;;;10.70;8.77;;;23.00;99.90;;;;;;5034427;28;20510;-76
2022/09/07 10:49:38;;;;;;;12.48;9.98;;;23.10;99.90;;;;;;5052168;28;20037;-77
2022/09/07 10:52:16;;;;;;;;;;;23.00;99.90;;;;;;4913575;29;20507;-76
2022/09/07 10:55:06;;;;;;;11.88;10.77;;;22.90;99.90;;;;;;4920308;29;19941;-76
2022/09/07 10:57:56;;;;;;;13.32;9.13;;;23.10;99.90;;;;;;5008653;28;20048;-78
2022/09/07 11:00:24;;;;;;;9.95;8.50;;;23.50;99.90;;;;;;5020297;28;20052;-76
2022/09/07 11:03:12;;;;;;;9.90;7.55;;;23.80;99.90;;;;;;5040855;28;20037;-77
2022/09/07 11:06:17;;;;;;;9.40;6.80;;;24.10;99.90;;;;;;5040831;28;20048;-76
2022/09/07 11:09:24;;;;;;;8.50;6.60;;;24.40;99.90;;;;;;5041988;28;20193;-76
2022/09/07 11:12:22;;;;;;;8.75;7.40;;;24.60;99.90;;;;;;5032912;28;20434;-76
2022/09/07 11:14:57;;;;;;;10.73;7.43;;;24.40;99.90;;;;;;5033841;28;20111;-77
2022/09/07 11:17:26;;;;;;;8.63;7.72;;;24.30;99.90;;;;;;5049354;28;20045;-76
2022/09/07 11:20:29;;;;;;;9.38;8.00;;;24.20;99.90;;;;;;5033130;28;20045;-76
2022/09/07 11:23:05;;;;;;;10.75;8.35;;;24.20;99.90;;;;;;5020047;28;20124;-76
2022/09/07 11:25:49;;;;;;;9.70;8.30;;;24.40;99.90;;;;;;5020814;28;20037;-76
2022/09/07 11:28:22;;;;;;;10.80;8.50;;;24.70;99.90;;;;;;5031440;28;20500;-76
2022/09/07 11:30:56;;;;;;;9.65;7.53;;;24.80;99.90;;;;;;5030401;28;20051;-76
2022/09/07 11:33:28;;;;;;;9.65;7.30;;;25.00;99.90;;;;;;5029359;28;20041;-76
2022/09/07 11:36:01;;;;;;;10.30;8.00;;;25.00;99.80;;;;;;5016833;28;20135;-75
2022/09/07 11:38:56;;;;;;;10.63;8.02;;;24.80;99.70;;;;;;5030418;28;20120;-76
2022/09/07 11:41:35;;;;;;;10.15;7.07;;;24.70;99.90;;;;;;5044802;28;20075;-77
2022/09/07 11:44:45;;;;;;;9.88;6.88;;;24.50;99.90;;;;;;5023381;28;20480;-76
2022/09/07 11:47:41;;;;;;;8.88;6.97;;;24.40;99.90;;;;;;5033282;28;20036;-77
2022/09/07 11:50:18;;;;;;;8.90;7.43;;;24.40;99.90;;;;;;4984569;28;20041;-76
2022/09/07 11:52:51;;;;;;;10.00;7.45;;;24.70;99.90;;;;;;5015939;28;20076;-76
2022/09/07 11:55:40;;;;;;;6.70;4.50;;;24.90;98.90;;;;;;5046901;28;20068;-76
2022/09/07 11:58:31;;;;;;;6.40;3.97;;;25.00;98.90;;;;;;5034483;28;20059;-76
2022/09/07 12:01:17;;;;;;;6.85;5.13;;;25.10;97.20;;;;;;5032694;28;20075;-76
2022/09/07 12:04:03;;;;;;;7.15;4.97;;;25.20;97.10;;;;;;5031415;28;20041;-76
2022/09/07 12:06:40;;;;;;;8.20;6.30;;;25.40;97.40;;;;;;5031470;28;20738;-76
2022/09/07 12:09:34;;;;;;;8.27;6.53;;;25.40;97.10;;;;;;5029703;28;20041;-76
2022/09/07 12:12:18;;;;;;;7.93;5.80;;;25.40;96.60;;;;;;5030799;28;20057;-76
2022/09/07 12:15:15;;;;;;;9.32;7.18;;;25.10;97.60;;;;;;5031900;28;20045;-77
2022/09/07 12:18:17;;;;;;;9.82;8.00;;;25.10;97.00;;;;;;5031596;28;20120;-76
2022/09/07 12:20:46;;;;;;;8.13;6.18;;;25.10;97.40;;;;;;4959110;28;20105;-77
2022/09/07 12:23:15;;;;;;;7.63;6.32;;;25.30;97.60;;;;;;5029630;28;20036;-76
2022/09/07 12:25:43;;;;;;;8.27;6.10;;;25.40;97.00;;;;;;5032803;28;20484;-76
2022/09/07 12:28:35;;;;;;;7.30;5.93;;;25.30;97.20;;;;;;5029360;28;20098;-76
2022/09/07 12:31:09;;;;;;;8.43;5.55;;;25.20;96.40;;;;;;5028206;28;20610;-77
2022/09/07 12:33:38;;;;;;;6.85;5.07;;;25.20;96.10;;;;;;5032263;28;20106;-77
2022/09/07 12:36:25;;;;;;;7.68;5.00;;;25.30;96.50;;;;;;5026320;28;20045;-77
2022/09/07 12:39:27;;;;;;;7.43;4.28;;;25.50;96.50;;;;;;5050469;28;20563;-77
2022/09/07 12:42:05;;;;;;;6.68;4.30;;;25.70;95.80;;;;;;5028160;28;20046;-76
2022/09/07 12:44:35;;;;;;;7.25;4.35;;;25.90;94.60;;;;;;5034933;28;20076;-76
2022/09/07 12:47:11;;;;;;;6.77;4.20;;;25.70;95.00;;;;;;5030398;28;20103;-76
2022/09/07 12:50:05;;;;;;;6.97;3.97;;;25.40;95.10;;;;;;5032575;28;20298;-76
2022/09/07 12:52:48;;;;;;;5.82;3.60;;;25.40;95.50;;;;;;5026320;28;20040;-76
2022/09/07 12:55:39;;;;;;;6.22;3.10;;;25.40;95.30;;;;;;5035184;28;20128;-76
2022/09/07 12:58:05;;;;;;;;;;;25.40;95.10;;;;;;5032108;28;20064;-76
2022/09/07 13:00:45;;;;;;;5.57;3.10;;;25.40;95.00;;;;;;5036555;28;19917;-76
2022/09/07 13:03:49;;;;;;;5.93;3.17;;;25.30;94.90;;;;;;5033094;28;20041;-76
2022/09/07 13:06:39;;;;;;;5.97;3.15;;;25.40;95.30;;;;;;5034971;28;20428;-76